createdAt,value
2022-09-28T00:01:47.674Z,5.45
2022-09-28T00:04:50.263Z,5.28
2022-09-28T00:07:56.744Z,5.30
2022-09-28T00:10:59.440Z,4.95
2022-09-28T00:14:03.775Z,5.35
2022-09-28T00:17:07.279Z,5.20
2022-09-28T00:20:10.336Z,5.00
2022-09-28T00:23:12.881Z,4.90
2022-09-28T00:26:15.786Z,4.90
2022-09-28T00:29:20.102Z,4.90
2022-09-28T00:32:24.742Z,4.90
2022-09-28T00:35:27.386Z,5.05
2022-09-28T00:38:30.315Z,5.60
2022-09-28T00:41:33.525Z,5.13
2022-09-28T00:44:39.454Z,4.75
2022-09-28T00:47:52.127Z,5.07
2022-09-28T00:50:55.164Z,4.75
2022-09-28T00:53:59.759Z,4.77
2022-09-28T00:57:03.746Z,4.72
2022-09-28T01:00:07.207Z,4.90
2022-09-28T01:03:10.811Z,4.70
2022-09-28T01:06:19.512Z,4.90
2022-09-28T01:09:22.486Z,4.77
2022-09-28T01:12:25.266Z,4.43
2022-09-28T01:15:30.110Z,4.72
2022-09-28T01:18:40.228Z,4.50
2022-09-28T01:21:54.598Z,4.70
2022-09-28T01:25:16.366Z,4.60
2022-09-28T01:28:21.806Z,4.43
2022-09-28T01:31:29.862Z,4.43
2022-09-28T01:34:41.582Z,4.50
2022-09-28T01:37:52.055Z,4.70
2022-09-28T01:40:57.577Z,4.27
2022-09-28T01:44:06.008Z,4.35
2022-09-28T01:47:13.005Z,4.72
2022-09-28T01:50:21.212Z,4.50
2022-09-28T01:53:46.847Z,4.63
2022-09-28T01:57:12.959Z,4.40
2022-09-28T02:00:19.060Z,4.53
2022-09-28T02:03:39.090Z,4.47
2022-09-28T02:06:49.258Z,4.30
2022-09-28T02:09:57.974Z,4.30
2022-09-28T02:13:43.760Z,4.30
2022-09-28T02:16:49.268Z,4.50
2022-09-28T02:19:51.921Z,4.03
2022-09-28T02:22:56.812Z,4.38
2022-09-28T02:26:06.854Z,4.50
2022-09-28T02:29:09.405Z,4.30
2022-09-28T02:32:12.242Z,4.00
2022-09-28T02:35:18.501Z,4.00
2022-09-28T02:38:21.323Z,4.10
2022-09-28T02:41:26.472Z,3.83
2022-09-28T02:44:35.127Z,3.97
2022-09-28T02:47:58.673Z,4.10
2022-09-28T02:51:09.030Z,3.90
2022-09-28T02:54:26.420Z,3.70
2022-09-28T02:57:39.580Z,4.05
2022-09-28T03:01:09.402Z,4.00
2022-09-28T03:04:36.561Z,4.00
2022-09-28T03:07:50.965Z,4.03
2022-09-28T03:11:03.865Z,3.90
2022-09-28T03:14:07.878Z,3.70
2022-09-28T03:17:27.665Z,3.93
2022-09-28T03:20:31.318Z,3.70
2022-09-28T03:23:33.951Z,3.85
2022-09-28T03:26:40.607Z,4.07
2022-09-28T03:29:43.328Z,3.78
2022-09-28T03:32:48.964Z,3.50
2022-09-28T03:35:51.773Z,4.03
2022-09-28T03:38:59.625Z,4.00
2022-09-28T03:42:02.644Z,3.60
2022-09-28T03:45:08.271Z,3.45
2022-09-28T03:48:11.807Z,3.73
2022-09-28T03:51:14.650Z,3.67
2022-09-28T03:54:17.127Z,3.50
2022-09-28T03:57:19.706Z,3.80
2022-09-28T04:00:23.102Z,3.50
2022-09-28T04:03:25.727Z,3.10
2022-09-28T04:06:29.304Z,3.80
2022-09-28T04:09:32.472Z,3.45
2022-09-28T04:12:34.966Z,3.30
2022-09-28T04:15:38.611Z,3.38
2022-09-28T04:18:41.133Z,3.23
2022-09-28T04:21:43.891Z,3.40
2022-09-28T04:24:49.248Z,3.30
2022-09-28T04:28:10.714Z,3.38
2022-09-28T04:31:16.343Z,3.50
2022-09-28T04:34:21.070Z,3.33
2022-09-28T04:37:24.655Z,3.60
2022-09-28T04:40:27.506Z,3.42
2022-09-28T04:43:33.141Z,3.38
2022-09-28T04:46:36.397Z,3.28
2022-09-28T04:49:57.514Z,3.53
2022-09-28T04:53:11.717Z,3.33
2022-09-28T04:56:16.173Z,3.25
2022-09-28T04:59:19.621Z,3.38
2022-09-28T05:02:22.256Z,3.40
2022-09-28T05:05:53.889Z,3.17
2022-09-28T05:09:07.172Z,3.58
2022-09-28T05:12:09.933Z,3.53
2022-09-28T05:15:13.303Z,3.30
2022-09-28T05:18:16.412Z,3.50
2022-09-28T05:21:29.342Z,2.90
2022-09-28T05:24:33.083Z,3.70
2022-09-28T05:27:35.915Z,3.22
2022-09-28T05:30:53.367Z,3.20
2022-09-28T05:34:25.147Z,3.53
2022-09-28T05:37:29.473Z,3.27
2022-09-28T05:40:33.001Z,2.85
2022-09-28T05:43:36.552Z,3.05
2022-09-28T05:46:40.628Z,2.80
2022-09-28T05:49:45.407Z,2.83
2022-09-28T05:53:07.874Z,2.77
2022-09-28T05:56:12.708Z,2.78
2022-09-28T05:59:19.358Z,2.53
2022-09-28T06:02:22.239Z,2.50
2022-09-28T06:05:25.387Z,2.50
2022-09-28T06:08:28.671Z,2.50
2022-09-28T06:11:49.135Z,2.58
2022-09-28T06:15:09.570Z,2.20
2022-09-28T06:18:17.137Z,3.00
2022-09-28T06:21:38.891Z,2.80
2022-09-28T06:24:42.533Z,2.70
2022-09-28T06:27:59.564Z,2.33
2022-09-28T06:31:02.278Z,2.05
2022-09-28T06:34:06.534Z,1.92
2022-09-28T06:37:09.122Z,2.20
2022-09-28T06:40:12.329Z,2.63
2022-09-28T06:43:15.590Z,2.08
2022-09-28T06:46:38.311Z,2.20
2022-09-28T06:50:00.091Z,2.15
2022-09-28T06:53:03.120Z,2.17
2022-09-28T06:56:21.972Z,1.90
2022-09-28T06:59:25.990Z,2.00
2022-09-28T07:02:30.480Z,1.80
2022-09-28T07:05:45.413Z,1.90
2022-09-28T07:09:31.723Z,1.88
2022-09-28T07:12:57.312Z,2.77
2022-09-28T07:16:09.278Z,2.20
2022-09-28T07:19:12.005Z,1.80
2022-09-28T07:22:19.192Z,1.98
2022-09-28T07:25:24.250Z,1.80
2022-09-28T07:28:45.628Z,2.07
2022-09-28T07:32:09.096Z,1.95
2022-09-28T07:35:34.366Z,1.77
2022-09-28T07:38:40.044Z,1.75
2022-09-28T07:41:44.043Z,1.60
2022-09-28T07:44:51.591Z,1.90
2022-09-28T07:47:58.840Z,1.80
2022-09-28T07:51:29.945Z,1.95
2022-09-28T07:54:53.056Z,2.10
2022-09-28T07:58:19.586Z,2.15
2022-09-28T08:01:37.564Z,2.57
2022-09-28T08:04:40.458Z,1.85
2022-09-28T08:07:44.299Z,2.13
2022-09-28T08:10:48.052Z,1.88
2022-09-28T08:14:14.086Z,2.38
2022-09-28T08:17:37.775Z,2.50
2022-09-28T08:21:01.783Z,2.40
2022-09-28T08:24:06.424Z,2.03
2022-09-28T08:27:10.512Z,2.10
2022-09-28T08:34:06.475Z,2.00
2022-09-28T08:37:28.937Z,2.05
2022-09-28T08:41:16.058Z,1.88
2022-09-28T08:44:48.313Z,1.98
2022-09-28T08:48:36.783Z,1.55
2022-09-28T08:52:38.526Z,2.10
2022-09-28T08:56:40.206Z,1.90
2022-09-28T08:59:59.281Z,1.92
2022-09-28T09:03:14.981Z,2.00
2022-09-28T09:06:48.481Z,1.95
2022-09-28T09:10:39.010Z,1.90
2022-09-28T09:14:23.410Z,1.98
2022-09-28T09:17:26.589Z,1.98
2022-09-28T09:21:06.486Z,2.17
2022-09-28T09:24:38.444Z,1.88
2022-09-28T09:27:49.189Z,1.80
2022-09-28T09:31:11.503Z,1.63
2022-09-28T09:34:40.643Z,2.00
2022-09-28T09:38:21.243Z,1.60
2022-09-28T09:42:18.846Z,1.35
2022-09-28T09:45:53.790Z,1.57
2022-09-28T09:50:05.476Z,1.52
2022-09-28T09:53:39.133Z,1.67
2022-09-28T09:57:06.110Z,1.30
2022-09-28T10:00:46.800Z,1.55
2022-09-28T10:04:04.929Z,1.60
2022-09-28T10:07:13.430Z,1.33
2022-09-28T10:10:21.601Z,1.40
2022-09-28T10:13:25.491Z,1.30
2022-09-28T10:16:33.381Z,1.40
2022-09-28T10:19:38.364Z,1.77
2022-09-28T10:23:19.819Z,1.30
2022-09-28T10:26:27.493Z,1.15
2022-09-28T10:29:37.914Z,1.13
2022-09-28T10:32:47.333Z,1.40
2022-09-28T10:35:50.663Z,1.10
2022-09-28T10:38:54.697Z,1.45
2022-09-28T10:42:09.866Z,1.38
2022-09-28T10:45:22.319Z,1.40
2022-09-28T10:48:27.273Z,1.20
2022-09-28T10:51:50.858Z,1.43
2022-09-28T10:55:01.123Z,1.00
2022-09-28T10:58:25.478Z,1.20
2022-09-28T11:01:38.873Z,1.10
2022-09-28T11:04:43.730Z,0.95
2022-09-28T11:07:48.216Z,1.13
2022-09-28T11:11:05.724Z,1.30
2022-09-28T11:14:24.980Z,1.00
2022-09-28T11:17:33.022Z,1.15
2022-09-28T11:20:44.207Z,1.02
2022-09-28T11:24:19.977Z,1.00
2022-09-28T11:27:28.352Z,0.77
2022-09-28T11:30:42.364Z,1.10
2022-09-28T11:34:07.307Z,0.90
2022-09-28T11:37:54.239Z,0.70
2022-09-28T11:41:25.389Z,0.87
2022-09-28T11:44:49.935Z,1.00
2022-09-28T11:48:07.233Z,1.10
2022-09-28T11:51:25.537Z,1.00
2022-09-28T11:54:43.152Z,1.20
2022-09-28T11:57:54.778Z,1.00
2022-09-28T12:01:18.700Z,1.20
2022-09-28T12:05:09.287Z,1.23
2022-09-28T12:08:15.214Z,0.90
2022-09-28T12:11:44.708Z,1.05
2022-09-28T12:15:06.282Z,1.13
2022-09-28T12:18:21.913Z,0.85
2022-09-28T12:21:25.659Z,0.95
2022-09-28T12:24:33.363Z,0.90
2022-09-28T12:27:53.726Z,1.00
2022-09-28T12:31:00.667Z,1.40
2022-09-28T12:34:03.877Z,1.30
2022-09-28T12:37:33.952Z,0.90
2022-09-28T12:41:01.487Z,1.10
2022-09-28T12:44:45.836Z,0.90
2022-09-28T12:48:17.420Z,0.80
2022-09-28T12:51:34.882Z,1.20
2022-09-28T12:54:59.294Z,1.23
2022-09-28T12:58:26.533Z,1.30
2022-09-28T13:01:53.849Z,1.23
2022-09-28T13:05:25.557Z,1.20
2022-09-28T13:08:41.432Z,1.25
2022-09-28T13:11:47.292Z,1.38
2022-09-28T13:15:19.087Z,1.30
2022-09-28T13:18:50.849Z,1.23
2022-09-28T13:22:26.210Z,1.20
2022-09-28T13:25:33.064Z,1.58
2022-09-28T13:28:37.897Z,1.25
2022-09-28T13:31:55.281Z,1.05
2022-09-28T13:34:59.323Z,1.20
2022-09-28T13:38:17.873Z,1.67
2022-09-28T13:41:29.354Z,1.35
2022-09-28T13:44:51.498Z,1.27
2022-09-28T13:48:27.040Z,1.40
2022-09-28T13:51:42.136Z,1.10
2022-09-28T13:55:25.172Z,1.23
2022-09-28T13:58:36.903Z,0.80
2022-09-28T14:01:42.729Z,1.15
2022-09-28T14:05:00.878Z,1.23
2022-09-28T14:08:09.218Z,1.00
2022-09-28T14:11:27.245Z,0.87
2022-09-28T14:14:47.245Z,1.00
2022-09-28T14:17:58.132Z,1.13
2022-09-28T14:21:26.373Z,1.58
2022-09-28T14:24:45.970Z,1.00
2022-09-28T14:28:19.197Z,0.87
2022-09-28T14:31:27.658Z,1.00
2022-09-28T14:34:41.401Z,1.15
2022-09-28T14:38:07.543Z,1.20
2022-09-28T14:41:16.324Z,0.90
2022-09-28T14:44:18.926Z,0.87
2022-09-28T14:47:34.985Z,1.10
2022-09-28T14:50:37.969Z,0.80
2022-09-28T14:53:41.082Z,1.00
2022-09-28T14:56:52.713Z,1.00
2022-09-28T14:59:59.703Z,1.00
2022-09-28T15:03:07.868Z,1.00
2022-09-28T15:06:19.804Z,0.85
2022-09-28T15:09:33.272Z,0.80
2022-09-28T15:12:35.873Z,1.02
2022-09-28T15:15:41.713Z,1.13
2022-09-28T15:19:22.866Z,1.00
2022-09-28T15:22:25.652Z,0.90
2022-09-28T15:25:30.375Z,0.95
2022-09-28T15:28:43.578Z,1.00
2022-09-28T15:31:49.942Z,6.70
2022-09-28T15:34:57.128Z,3.92
2022-09-28T15:37:59.893Z,3.20
2022-09-28T15:41:07.284Z,2.60
2022-09-28T15:44:12.852Z,2.20
2022-09-28T15:47:25.433Z,2.43
2022-09-28T15:50:29.991Z,2.58
2022-09-28T15:53:33.874Z,2.75
2022-09-28T15:57:02.046Z,2.80
2022-09-28T16:00:21.902Z,2.92
2022-09-28T16:03:29.462Z,2.47
2022-09-28T16:06:32.168Z,2.67
2022-09-28T16:09:55.835Z,2.35
2022-09-28T16:13:08.643Z,2.88
2022-09-28T16:16:15.670Z,2.10
2022-09-28T16:19:51.221Z,2.20
2022-09-28T16:22:54.629Z,2.00
2022-09-28T16:26:02.101Z,1.95
2022-09-28T16:29:42.069Z,1.98
2022-09-28T16:32:50.444Z,2.45
2022-09-28T16:35:53.082Z,2.67
2022-09-28T16:38:56.121Z,2.10
2022-09-28T16:42:11.134Z,2.15
2022-09-28T16:45:20.427Z,2.33
2022-09-28T16:48:27.099Z,2.15
2022-09-28T16:51:29.633Z,2.23
2022-09-28T16:54:50.519Z,1.88
2022-09-28T16:57:53.092Z,1.95
2022-09-28T17:00:55.707Z,2.53
2022-09-28T17:03:58.291Z,1.75
2022-09-28T17:07:00.866Z,2.27
2022-09-28T17:10:03.768Z,1.90
2022-09-28T17:13:06.326Z,1.85
2022-09-28T17:16:13.860Z,2.03
2022-09-28T17:19:22.185Z,2.20
2022-09-28T17:22:24.695Z,2.57
2022-09-28T17:25:27.415Z,1.77
2022-09-28T17:28:33.005Z,1.90
2022-09-28T17:31:35.943Z,1.80
2022-09-28T17:34:38.660Z,1.70
2022-09-28T17:37:42.257Z,1.70
2022-09-28T17:40:46.951Z,1.77
2022-09-28T17:43:49.727Z,2.38
2022-09-28T17:46:52.396Z,1.80
2022-09-28T17:49:55.033Z,2.17
2022-09-28T17:52:59.912Z,2.23
2022-09-28T17:56:02.406Z,2.08
2022-09-28T17:59:07.773Z,1.83
2022-09-28T18:02:11.614Z,2.35
2022-09-28T18:05:15.497Z,1.92
2022-09-28T18:08:20.863Z,1.47
2022-09-28T18:11:23.764Z,1.77
2022-09-28T18:14:26.504Z,1.95
2022-09-28T18:17:29.075Z,1.60
2022-09-28T18:20:31.856Z,2.10
2022-09-28T18:23:38.631Z,1.80
2022-09-28T18:26:41.494Z,2.33
2022-09-28T18:29:44.425Z,1.70
2022-09-28T18:32:47.010Z,1.80
2022-09-28T18:35:54.347Z,1.58
2022-09-28T18:38:57.645Z,2.00
2022-09-28T18:42:00.272Z,2.20
2022-09-28T18:45:05.888Z,1.90
2022-09-28T18:48:08.477Z,1.80
2022-09-28T18:51:12.490Z,1.80
2022-09-28T18:54:16.977Z,1.77
2022-09-28T18:57:19.600Z,1.85
2022-09-28T19:00:22.070Z,1.73
2022-09-28T19:03:24.915Z,1.98
2022-09-28T19:06:28.109Z,1.90
2022-09-28T19:09:30.719Z,1.77
2022-09-28T19:12:33.339Z,1.83
2022-09-28T19:15:36.077Z,1.95
2022-09-28T19:18:39.089Z,1.95
2022-09-28T19:21:43.356Z,1.75
2022-09-28T19:24:46.171Z,1.70
2022-09-28T19:27:48.882Z,1.83
2022-09-28T19:34:13.426Z,1.67
2022-09-28T19:37:17.059Z,1.60
2022-09-28T19:40:19.765Z,1.70
2022-09-28T19:43:22.447Z,1.85
2022-09-28T19:46:24.990Z,1.70
2022-09-28T19:49:33.025Z,1.85
2022-09-28T19:52:35.448Z,1.50
2022-09-28T19:55:39.110Z,1.63
2022-09-28T19:58:41.790Z,1.73
2022-09-28T20:01:44.340Z,1.50
2022-09-28T20:04:46.984Z,1.50
2022-09-28T20:07:49.440Z,1.83
2022-09-28T20:10:54.818Z,1.60
2022-09-28T20:13:59.812Z,2.28
2022-09-28T20:17:02.255Z,1.50
2022-09-28T20:20:04.995Z,1.77
2022-09-28T20:23:08.603Z,1.63
2022-09-28T20:26:11.733Z,1.80
2022-09-28T20:29:14.475Z,1.85
2022-09-28T20:32:17.009Z,1.83
2022-09-28T20:35:32.072Z,1.55
2022-09-28T20:38:40.434Z,2.15
2022-09-28T20:41:42.942Z,1.80
2022-09-28T20:44:45.416Z,1.70
2022-09-28T20:47:47.820Z,1.73
2022-09-28T20:51:00.699Z,1.55
2022-09-28T20:54:03.187Z,1.70
2022-09-28T20:57:17.606Z,1.60
2022-09-28T21:00:20.300Z,1.60
2022-09-28T21:03:22.897Z,1.90
2022-09-28T21:06:30.909Z,1.80
2022-09-28T21:09:33.887Z,1.58
2022-09-28T21:12:37.029Z,1.67
2022-09-28T21:15:39.843Z,1.83
2022-09-28T21:18:42.617Z,1.65
2022-09-28T21:21:45.202Z,1.63
2022-09-28T21:24:47.652Z,1.65
2022-09-28T21:27:50.592Z,1.83
2022-09-28T21:30:53.200Z,1.70
2022-09-28T21:33:56.174Z,1.92
2022-09-28T21:36:58.882Z,1.60
2022-09-28T21:40:02.674Z,1.50
2022-09-28T21:43:05.223Z,1.80
2022-09-28T21:46:08.097Z,1.60
2022-09-28T21:49:10.914Z,1.45
2022-09-28T21:52:13.644Z,1.70
2022-09-28T21:55:16.538Z,1.50
2022-09-28T21:58:24.354Z,1.50
2022-09-28T22:01:27.111Z,1.50
2022-09-28T22:04:29.798Z,1.80
2022-09-28T22:07:32.458Z,1.40
2022-09-28T22:10:35.230Z,1.55
2022-09-28T22:13:44.313Z,1.73
2022-09-28T22:16:47.055Z,1.60
2022-09-28T22:19:50.017Z,1.70
2022-09-28T22:22:52.707Z,1.75
2022-09-28T22:26:08.364Z,1.42
2022-09-28T22:29:11.061Z,1.60
2022-09-28T22:32:13.549Z,1.55
2022-09-28T22:35:16.193Z,1.50
2022-09-28T22:38:20.071Z,1.63
2022-09-28T22:41:23.500Z,1.30
2022-09-28T22:44:26.251Z,1.50
2022-09-28T22:47:28.675Z,1.50
2022-09-28T22:50:31.633Z,1.70
2022-09-28T22:53:35.552Z,1.70
2022-09-28T22:56:38.013Z,1.70
2022-09-28T22:59:40.647Z,1.63
2022-09-28T23:02:45.050Z,1.50
2022-09-28T23:05:54.792Z,1.40
2022-09-28T23:08:57.589Z,1.48
2022-09-28T23:12:00.528Z,1.55
2022-09-28T23:15:03.421Z,1.60
2022-09-28T23:18:06.138Z,1.60
2022-09-28T23:21:12.474Z,1.90
2022-09-28T23:24:15.177Z,1.50
2022-09-28T23:27:17.888Z,1.45
2022-09-28T23:30:21.352Z,1.47
2022-09-28T23:33:24.008Z,1.40
2022-09-28T23:36:27.291Z,1.65
2022-09-28T23:39:29.824Z,1.88
2022-09-28T23:42:32.947Z,1.50
2022-09-28T23:45:35.484Z,1.77
2022-09-28T23:48:38.795Z,1.70
2022-09-28T23:51:41.226Z,1.60
2022-09-28T23:54:44.026Z,1.67
2022-09-28T23:57:46.601Z,1.60
